Time;durP1;ratioP1;P1;durP2;ratioP2;P2;SDS_P1;SDS_P2;PMS_P1;PMS_P2;Temp;Humidity;BMP_temperature;BMP_pressure;BME280_temperature;BME280_humidity;BME280_pressure;Samples;Min_cycle;Max_cycle;Signal;HPM_P1;HPM_P2
2022/11/09 00:00:34;;;;;;;;;;;;;;;-144.99;76.51;52423.63;5068348;28;19954;-73
2022/11/09 00:03:01;;;;;;;;;;;;;;;-144.99;76.78;52415.47;5069244;28;19988;-73
2022/11/09 00:05:27;;;;;;;;;;;;;;;-144.99;77.24;52427.72;5067745;28;20308;-74
2022/11/09 00:07:54;;;;;;;;;;;;;;;-144.99;77.17;52386.94;5067922;28;19980;-73
2022/11/09 00:10:20;;;;;;;;;;;;;;;-144.99;77.29;52439.94;5066774;28;20067;-73
2022/11/09 00:12:48;;;;;;;;;;;;;;;-144.99;77.09;52419.56;5065485;28;19978;-74
2022/11/09 00:15:14;;;;;;;;;;;;;;;-144.99;77.44;52419.56;5069256;28;19940;-74
2022/11/09 00:17:41;;;;;;;;;;;;;;;-144.99;77.62;52399.19;5066904;28;19949;-75
2022/11/09 00:20:08;;;;;;;;;;;;;;;-144.99;77.32;52423.63;5062833;28;19949;-74
2022/11/09 00:22:34;;;;;;;;;;;;;;;-144.99;77.80;52411.41;5064958;28;19985;-74
2022/11/09 00:25:00;;;;;;;;;;;;;;;-144.99;77.67;52391.03;5059135;28;19943;-74
2022/11/09 00:27:27;;;;;;;;;;;;;;;-144.99;78.28;52391.03;5066898;28;20019;-73
2022/11/09 00:29:55;;;;;;;;;;;;;;;-144.99;78.57;52452.16;5067006;28;20385;-73
2022/11/09 00:32:22;;;;;;;;;;;;;;;-144.99;78.40;52421.59;5070026;28;19935;-74
2022/11/09 00:34:48;;;;;;;;;;;;;;;-144.99;78.34;52419.56;5086516;28;19939;-74
2022/11/09 00:37:14;;;;;;;;;;;;;;;-144.99;78.87;52407.31;5086995;28;19950;-73
2022/11/09 00:39:41;;;;;;;;;;;;;;;-144.99;78.56;52423.63;5078698;28;20387;-74
2022/11/09 00:42:07;;;;;;;;;;;;;;;-144.99;79.22;52431.78;5069326;28;20045;-76
2022/11/09 00:44:34;;;;;;;;;;;;;;;-144.99;79.26;52464.41;5071266;28;20029;-75
2022/11/09 00:47:01;;;;;;;;;;;;;;;-144.99;78.86;52413.44;5063432;28;20385;-75
2022/11/09 00:49:28;;;;;;;;;;;;;;;-144.99;79.22;52395.09;5058938;28;19941;-74
2022/11/09 00:51:55;;;;;;;;;;;;;;;-144.99;78.89;52403.25;5068576;28;20503;-74
2022/11/09 00:54:21;;;;;;;;;;;;;;;-144.99;79.71;52439.94;5066573;28;19945;-74
2022/11/09 00:56:48;;;;;;;;;;;;;;;-144.99;80.15;52431.78;5067531;28;19944;-78
2022/11/09 00:59:14;;;;;;;;;;;;;;;-144.99;79.97;52435.88;5058971;28;20311;-75
2022/11/09 01:01:41;;;;;;;;;;;;;;;-144.99;79.76;52419.56;5090281;28;19973;-75
2022/11/09 01:04:08;;;;;;;;;;;;;;;-144.99;79.83;52421.59;5072228;28;19943;-71
2022/11/09 01:06:35;;;;;;;;;;;;;;;-144.99;79.77;52421.59;5067261;28;20415;-71
2022/11/09 01:09:01;;;;;;;;;;;;;;;-144.99;79.37;52393.06;5062796;28;20393;-73
2022/11/09 01:11:28;;;;;;;;;;;;;;;-144.99;79.17;52419.56;5065373;28;19962;-74
2022/11/09 01:13:55;;;;;;;;;;;;;;;-144.99;79.90;52395.09;5066653;28;19943;-74
2022/11/09 01:16:22;;;;;;;;;;;;;;;-144.99;79.87;52433.81;5067737;28;19945;-73
2022/11/09 01:18:52;;;;;;;;;;;;;;;-144.99;79.62;52382.88;5069937;28;20010;-72
2022/11/09 01:21:19;;;;;;;;;;;;;;;-144.99;79.33;52382.88;5066717;28;19956;-70
2022/11/09 01:23:46;;;;;;;;;;;;;;;-144.99;79.25;52407.31;5067067;28;19943;-70
2022/11/09 01:26:13;;;;;;;;;;;;;;;-144.99;79.58;52431.78;5066911;28;20254;-69
2022/11/09 01:28:40;;;;;;;;;;;;;;;-144.99;80.14;52409.38;5066724;28;19962;-70
2022/11/09 01:31:07;;;;;;;;;;;;;;;-144.99;79.78;52425.66;5063895;28;19961;-70
2022/11/09 01:33:34;;;;;;;;;;;;;;;-144.99;80.41;52415.47;5066015;28;20030;-70
2022/11/09 01:36:04;;;;;;;;;;;;;;;-144.99;80.16;52403.25;5068340;28;20061;-69
2022/11/09 01:38:32;;;;;;;;;;;;;;;-144.99;80.36;52393.06;5062771;28;20390;-69
2022/11/09 01:40:58;;;;;;;;;;;;;;;-144.99;80.27;52417.53;5064586;28;20496;-70
2022/11/09 01:43:25;;;;;;;;;;;;;;;-144.99;79.85;52395.09;5066386;28;20363;-70
2022/11/09 01:45:53;;;;;;;;;;;;;;;-144.99;80.60;52435.88;5067447;28;20398;-74
2022/11/09 01:48:22;;;;;;;;;;;;;;;-144.99;80.66;52391.03;5064688;28;20021;-73
2022/11/09 01:50:52;;;;;;;;;;;;;;;-144.99;80.75;52386.94;5067871;28;20432;-74
2022/11/09 01:53:20;;;;;;;;;;;;;;;-144.99;80.95;52425.66;5064767;28;20405;-75
2022/11/09 01:55:50;;;;;;;;;;;;;;;-144.99;80.95;52415.47;5065671;28;20067;-73
2022/11/09 01:58:18;;;;;;;;;;;;;;;-144.99;80.97;52456.25;5065791;28;20035;-70
2022/11/09 02:00:46;;;;;;;;;;;;;;;-144.99;81.12;52358.41;5066381;28;20006;-69
2022/11/09 02:03:15;;;;;;;;;;;;;;;-144.99;81.07;52399.19;5067687;28;19947;-70
2022/11/09 02:05:42;;;;;;;;;;;;;;;-144.99;81.58;52413.44;5069490;28;19990;-70
2022/11/09 02:08:10;;;;;;;;;;;;;;;-144.99;81.82;52439.94;5067826;28;20039;-70
2022/11/09 02:10:40;;;;;;;;;;;;;;;-144.99;81.90;52382.88;5066221;28;20388;-70
2022/11/09 02:13:09;;;;;;;;;;;;;;;-144.99;82.11;52419.56;5067039;28;20355;-69
2022/11/09 02:15:36;;;;;;;;;;;;;;;-144.99;81.63;52456.25;5064282;28;19945;-69
2022/11/09 02:18:03;;;;;;;;;;;;;;;-144.99;81.67;52395.09;5079862;28;19959;-68
2022/11/09 02:20:43;;;;;;;;;;;;;;;-144.99;81.58;52399.19;5078368;28;20417;-68
2022/11/09 02:23:10;;;;;;;;;;;;;;;-144.99;81.74;52399.19;5085899;28;19992;-68
2022/11/09 02:25:36;;;;;;;;;;;;;;;-144.99;81.75;52382.88;5084207;28;19962;-68
2022/11/09 02:28:03;;;;;;;;;;;;;;;-144.99;81.54;52419.56;5089133;28;19983;-68
2022/11/09 02:30:29;;;;;;;;;;;;;;;-144.99;81.57;52439.94;5091761;28;19912;-68
2022/11/09 02:32:56;;;;;;;;;;;;;;;-144.99;81.46;52435.88;5089477;28;19986;-68
2022/11/09 02:35:22;;;;;;;;;;;;;;;-144.99;80.87;52423.63;5083627;28;19936;-66
2022/11/09 02:37:50;;;;;;;;;;;;;;;-144.99;81.75;52427.72;5086544;28;20061;-66
2022/11/09 02:40:20;;;;;;;;;;;;;;;-144.99;81.89;52403.25;5089790;28;20257;-65
2022/11/09 02:42:47;;;;;;;;;;;;;;;-144.99;82.44;52386.94;5082934;28;19935;-64
2022/11/09 02:45:13;;;;;;;;;;;;;;;-144.99;82.38;52380.84;5078025;28;19976;-65
2022/11/09 02:47:40;;;;;;;;;;;;;;;-144.99;82.76;52431.78;5061578;28;20426;-67
2022/11/09 02:50:07;;;;;;;;;;;;;;;-144.99;82.53;52427.72;5065994;28;20046;-65
2022/11/09 02:52:33;;;;;;;;;;;;;;;-144.99;82.80;52427.72;5062518;28;20338;-65
2022/11/09 02:55:01;;;;;;;;;;;;;;;-144.99;83.06;52464.41;5063632;28;20056;-65
2022/11/09 02:57:28;;;;;;;;;;;;;;;-144.99;82.86;52413.44;5064119;28;20081;-65
2022/11/09 02:59:54;;;;;;;;;;;;;;;-144.99;83.32;52407.31;5067322;28;20054;-65
2022/11/09 03:02:20;;;;;;;;;;;;;;;-144.99;83.50;52403.25;5067219;28;19939;-65
2022/11/09 03:04:47;;;;;;;;;;;;;;;-144.99;83.87;52464.41;5075573;28;19938;-64
2022/11/09 03:07:13;;;;;;;;;;;;;;;-144.99;83.31;52386.94;5078187;28;20463;-69
2022/11/09 03:09:40;;;;;;;;;;;;;;;-144.99;83.69;52421.59;5066037;28;19937;-69
2022/11/09 03:14:48;;;;;;;;;;;;;;;-144.99;83.65;52419.56;5065095;28;20518;-69
2022/11/09 03:17:15;;;;;;;;;;;;;;;-144.99;83.75;52399.19;5064878;28;19944;-69
2022/11/09 03:19:42;;;;;;;;;;;;;;;-144.99;83.11;52386.94;5065693;28;19957;-68
2022/11/09 03:22:08;;;;;;;;;;;;;;;-144.99;83.29;52415.47;5066696;28;19994;-70
2022/11/09 03:24:34;;;;;;;;;;;;;;;-144.99;83.57;52403.25;5059121;28;19977;-69
2022/11/09 03:27:01;;;;;;;;;;;;;;;-144.99;83.43;52419.56;5057013;28;19978;-69
2022/11/09 03:29:29;;;;;;;;;;;;;;;-144.99;83.53;52427.72;5064671;28;20036;-69
2022/11/09 03:31:55;;;;;;;;;;;;;;;-144.99;83.61;52399.19;5063744;28;19963;-67
2022/11/09 03:34:22;;;;;;;;;;;;;;;-144.99;84.29;52407.31;5062792;28;20126;-67
2022/11/09 03:36:48;;;;;;;;;;;;;;;-144.99;83.85;52388.97;5061754;28;20415;-67
2022/11/09 03:39:14;;;;;;;;;;;;;;;-144.99;84.10;52399.19;5064855;28;19951;-68
2022/11/09 03:41:41;;;;;;;;;;;;;;;-144.99;83.64;52409.38;5066242;28;20357;-69
2022/11/09 03:44:07;;;;;;;;;;;;;;;-144.99;84.14;52407.31;5062335;28;19971;-68
2022/11/09 03:46:35;;;;;;;;;;;;;;;-144.99;84.45;52407.31;5064272;28;20377;-72
2022/11/09 03:49:01;;;;;;;;;;;;;;;-144.99;85.01;52395.09;5066550;28;19951;-70
2022/11/09 03:51:28;;;;;;;;;;;;;;;-144.99;84.56;52403.25;5066060;28;20045;-70
2022/11/09 03:53:54;;;;;;;;;;;;;;;-144.99;85.29;52423.63;5065122;28;19964;-70
2022/11/09 03:56:21;;;;;;;;;;;;;;;-144.99;85.50;52415.47;5066204;28;20042;-70
2022/11/09 03:58:47;;;;;;;;;;;;;;;-144.99;86.14;52427.72;5068223;28;19959;-69
2022/11/09 04:01:14;;;;;;;;;;;;;;;-144.99;86.67;52427.72;5066142;28;19952;-69
2022/11/09 04:03:42;;;;;;;;;;;;;;;-144.99;86.12;52439.94;5064667;28;20408;-68
2022/11/09 04:06:08;;;;;;;;;;;;;;;-144.99;85.92;52395.09;5060089;28;20350;-68
2022/11/09 04:08:34;;;;;;;;;;;;;;;-144.99;86.07;52401.22;5063906;28;19945;-71
2022/11/09 04:11:01;;;;;;;;;;;;;;;-144.99;86.11;52378.78;5068072;28;19964;-71
2022/11/09 04:13:27;;;;;;;;;;;;;;;-144.99;85.31;52384.91;5068121;28;20339;-69
2022/11/09 04:15:54;;;;;;;;;;;;;;;-144.99;85.51;52411.41;5066420;28;19983;-71
2022/11/09 04:18:20;;;;;;;;;;;;;;;-144.99;85.12;52382.88;5072790;28;20029;-70
2022/11/09 04:20:48;;;;;;;;;;;;;;;-144.99;85.31;52423.63;5083727;28;20018;-71
2022/11/09 04:23:14;;;;;;;;;;;;;;;-144.99;85.04;52395.09;5069329;28;20411;-72
2022/11/09 04:25:41;;;;;;;;;;;;;;;-144.99;85.17;52397.13;5069072;28;20431;-71
2022/11/09 04:28:10;;;;;;;;;;;;;;;-144.99;85.74;52411.41;5066133;28;20447;-71
2022/11/09 04:30:36;;;;;;;;;;;;;;;-144.99;85.30;52374.72;5071229;28;19989;-70
2022/11/09 04:33:03;;;;;;;;;;;;;;;-144.99;85.75;52413.44;5067038;28;19925;-70
2022/11/09 04:35:30;;;;;;;;;;;;;;;-144.99;86.09;52382.88;5069413;28;20403;-71
2022/11/09 04:37:59;;;;;;;;;;;;;;;-144.99;85.67;52376.75;5065332;28;20411;-71
2022/11/09 04:40:26;;;;;;;;;;;;;;;-144.99;85.95;52378.78;5065086;28;19954;-71
2022/11/09 04:42:53;;;;;;;;;;;;;;;-144.99;86.58;52407.31;5066791;28;20061;-71
2022/11/09 04:45:19;;;;;;;;;;;;;;;-144.99;86.26;52419.56;5066083;28;19942;-71
2022/11/09 04:47:46;;;;;;;;;;;;;;;-144.99;86.48;52376.75;5066024;28;19941;-71
2022/11/09 04:50:13;;;;;;;;;;;;;;;-144.99;86.77;52407.31;5059415;28;19967;-75
2022/11/09 04:52:39;;;;;;;;;;;;;;;-144.99;87.10;52391.03;5064443;28;20737;-75
2022/11/09 04:55:08;;;;;;;;;;;;;;;-144.99;86.35;52423.63;5063605;28;20035;-67
2022/11/09 04:57:34;;;;;;;;;;;;;;;-144.99;86.62;52382.88;5079062;22;19930;-67
2022/11/09 05:00:01;;;;;;;;;;;;;;;-144.99;87.13;52374.72;5080281;28;19963;-67
2022/11/09 05:02:27;;;;;;;;;;;;;;;-144.99;87.32;52382.88;5060183;28;19950;-67
2022/11/09 05:04:53;;;;;;;;;;;;;;;-144.99;86.91;52444.03;5060414;28;20098;-71
2022/11/09 05:07:20;;;;;;;;;;;;;;;-144.99;87.28;52448.09;5058921;28;19951;-72
2022/11/09 05:09:46;;;;;;;;;;;;;;;-144.99;87.20;52384.91;5066135;28;19936;-71
2022/11/09 05:12:14;;;;;;;;;;;;;;;-144.99;87.79;52395.09;5064348;28;20426;-70
2022/11/09 05:14:40;;;;;;;;;;;;;;;-144.99;86.56;52391.03;5063036;28;20134;-70
2022/11/09 05:17:07;;;;;;;;;;;;;;;-144.99;87.88;52415.47;5059553;28;19939;-71
2022/11/09 05:19:34;;;;;;;;;;;;;;;-144.99;87.14;52427.72;5056185;28;19962;-73
2022/11/09 05:23:57;;;;;;;;;;;;;;;-144.99;87.44;52429.75;5057054;28;20406;-73
2022/11/09 05:24:46;;;;;;;;;;;;;;;-144.99;87.48;52409.38;5059980;28;19950;-73
2022/11/09 05:27:14;;;;;;;;;;;;;;;-144.99;87.17;52403.25;5063265;28;19942;-73
2022/11/09 05:29:40;;;;;;;;;;;;;;;-144.99;87.19;52415.47;5060248;28;20031;-73
2022/11/09 05:32:07;;;;;;;;;;;;;;;-144.99;87.23;52366.56;5060993;28;19969;-74
2022/11/09 05:34:33;;;;;;;;;;;;;;;-144.99;87.00;52391.03;5058239;28;19939;-76
2022/11/09 05:37:00;;;;;;;;;;;;;;;-144.99;86.41;52386.94;5061119;28;19938;-73
2022/11/09 05:39:26;;;;;;;;;;;;;;;-144.99;86.93;52386.94;5060015;28;19961;-73
2022/11/09 05:41:53;;;;;;;;;;;;;;;-144.99;87.55;52411.41;5058841;28;19955;-73
2022/11/09 05:44:21;;;;;;;;;;;;;;;-144.99;87.45;52415.47;5061456;28;20290;-69
2022/11/09 05:46:47;;;;;;;;;;;;;;;-144.99;87.20;52401.22;5058129;28;19939;-72
2022/11/09 05:49:13;;;;;;;;;;;;;;;-144.99;87.82;52393.06;5058026;28;20044;-68
2022/11/09 05:51:40;;;;;;;;;;;;;;;-144.99;87.41;52419.56;5062008;28;19961;-68
2022/11/09 05:54:06;;;;;;;;;;;;;;;-144.99;87.53;52403.25;5056014;28;19938;-68
2022/11/09 05:56:33;;;;;;;;;;;;;;;-144.99;87.73;52407.31;5060921;28;20022;-68
2022/11/09 05:58:59;;;;;;;;;;;;;;;-144.99;88.40;52374.72;5061643;28;20346;-69
2022/11/09 06:01:27;;;;;;;;;;;;;;;-144.99;89.14;52423.63;5060714;28;20233;-75
2022/11/09 06:03:53;;;;;;;;;;;;;;;-144.99;88.56;52391.03;4353158;28;10000732;-75
2022/11/09 06:06:20;;;;;;;;;;;;;;;-144.99;88.58;52427.72;5053645;28;20034;-77
2022/11/09 06:08:46;;;;;;;;;;;;;;;-144.99;89.28;52407.31;5050832;28;20048;-76
2022/11/09 06:11:13;;;;;;;;;;;;;;;-144.99;89.49;52399.19;5052594;28;19928;-76
2022/11/09 06:13:40;;;;;;;;;;;;;;;-144.99;89.42;52395.09;5057786;28;20038;-76
2022/11/09 06:16:07;;;;;;;;;;;;;;;-144.99;89.90;52423.63;5061481;28;20062;-76
2022/11/09 06:18:35;;;;;;;;;;;;;;;-144.99;89.48;52413.44;5057176;28;19986;-76
2022/11/09 06:21:03;;;;;;;;;;;;;;;-144.99;89.38;52384.91;5058893;28;20437;-76
2022/11/09 06:23:30;;;;;;;;;;;;;;;-144.99;89.29;52446.06;5049594;28;20273;-76
2022/11/09 06:25:57;;;;;;;;;;;;;;;-144.99;89.58;52431.78;5061228;28;20267;-76
2022/11/09 06:28:23;;;;;;;;;;;;;;;-144.99;91.06;52407.31;5056198;28;19940;-76
2022/11/09 06:30:50;;;;;;;;;;;;;;;-144.99;89.74;52419.56;5045386;28;20048;-75
2022/11/09 06:33:16;;;;;;;;;;;;;;;-144.99;89.92;52419.56;5056164;28;20025;-76
2022/11/09 06:35:44;;;;;;;;;;;;;;;-144.99;90.14;52403.25;5054212;28;19962;-76
2022/11/09 06:38:11;;;;;;;;;;;;;;;-144.99;90.37;52386.94;5059236;28;19945;-75
2022/11/09 06:40:38;;;;;;;;;;;;;;;-144.99;90.98;52464.41;5063412;28;19978;-75
2022/11/09 06:43:04;;;;;;;;;;;;;;;-144.99;90.26;52427.72;5064324;28;20053;-76
2022/11/09 06:45:31;;;;;;;;;;;;;;;-144.99;90.64;52391.03;5062364;28;20081;-76
2022/11/09 06:47:58;;;;;;;;;;;;;;;-144.99;90.82;52393.06;5063051;28;20384;-76
2022/11/09 06:50:25;;;;;;;;;;;;;;;-144.99;90.08;52415.47;5051666;28;19968;-76
2022/11/09 06:52:55;;;;;;;;;;;;;;;-144.99;89.44;52382.88;5063143;28;20414;-78
2022/11/09 06:55:21;;;;;;;;;;;;;;;-144.99;88.76;52411.41;5059144;28;19949;-77
2022/11/09 06:57:48;;;;;;;;;;;;;;;-144.99;88.24;52382.88;5055591;28;19981;-76
2022/11/09 07:00:15;;;;;;;;;;;;;;;-144.99;88.10;52413.44;5063660;28;19987;-77
2022/11/09 07:02:42;;;;;;;;;;;;;;;-144.99;87.39;52366.56;5059464;28;19955;-77
2022/11/09 07:05:09;;;;;;;;;;;;;;;-144.99;87.74;52425.66;5044302;28;20296;-77
2022/11/09 07:07:35;;;;;;;;;;;;;;;-144.99;87.14;52415.47;5048119;28;19944;-76
2022/11/09 07:10:03;;;;;;;;;;;;;;;-144.99;87.51;52399.19;5048779;28;19955;-76
2022/11/09 07:12:31;;;;;;;;;;;;;;;-144.99;87.00;52395.09;5048089;28;19999;-76
2022/11/09 07:14:57;;;;;;;;;;;;;;;-144.99;86.90;52372.69;5043288;28;20412;-76
2022/11/09 07:17:24;;;;;;;;;;;;;;;-144.99;86.94;52415.47;5045385;28;20565;-76
2022/11/09 07:19:50;;;;;;;;;;;;;;;-144.99;87.65;52364.53;5048329;28;19940;-77
2022/11/09 07:22:17;;;;;;;;;;;;;;;-144.99;87.83;52419.56;5044695;28;20211;-77
2022/11/09 07:24:43;;;;;;;;;;;;;;;-144.99;88.16;52399.19;5044911;28;21386;-77
2022/11/09 07:27:11;;;;;;;;;;;;;;;-144.99;88.15;52395.09;5047411;28;19945;-77
2022/11/09 07:29:37;;;;;;;;;;;;;;;-144.99;87.93;52378.78;5054487;28;19941;-75
2022/11/09 07:32:04;;;;;;;;;;;;;;;-144.99;88.11;52407.31;5054048;28;20006;-77
2022/11/09 07:34:31;;;;;;;;;;;;;;;-144.99;87.97;52417.53;5053764;28;19987;-77
2022/11/09 07:36:57;;;;;;;;;;;;;;;-144.99;87.48;52386.94;5056057;28;20073;-77
2022/11/09 07:39:23;;;;;;;;;;;;;;;-144.99;87.90;52395.09;5056350;28;19946;-77
2022/11/09 07:41:50;;;;;;;;;;;;;;;-144.99;88.02;52419.56;5058472;28;20064;-76
2022/11/09 07:44:18;;;;;;;;;;;;;;;-144.99;87.77;52419.56;5057532;28;20051;-77
2022/11/09 07:46:44;;;;;;;;;;;;;;;-144.99;87.26;52423.63;5063035;28;20432;-76
2022/11/09 07:49:12;;;;;;;;;;;;;;;-144.99;87.83;52399.19;5053713;28;20095;-77
2022/11/09 07:51:39;;;;;;;;;;;;;;;-144.99;87.81;52378.78;5057904;28;19958;-76
2022/11/09 07:54:05;;;;;;;;;;;;;;;-144.99;87.28;52382.88;4696482;28;9999619;-77
2022/11/09 07:56:32;;;;;;;;;;;;;;;-144.99;87.70;52395.09;5060268;28;19963;-76
2022/11/09 07:58:58;;;;;;;;;;;;;;;-144.99;87.36;52362.50;5056110;28;20514;-77
2022/11/09 08:01:26;;;;;;;;;;;;;;;-144.99;87.02;52395.09;5066610;28;20087;-77
2022/11/09 08:03:53;;;;;;;;;;;;;;;-144.99;86.72;52427.72;5064419;28;19953;-77
2022/11/09 08:06:21;;;;;;;;;;;;;;;-144.99;87.29;52407.31;5053816;28;20497;-77
2022/11/09 08:08:48;;;;;;;;;;;;;;;-144.99;86.58;52401.22;5054372;28;19950;-77
2022/11/09 08:11:14;;;;;;;;;;;;;;;-144.99;85.88;52346.19;5063673;28;19960;-77
2022/11/09 08:13:41;;;;;;;;;;;;;;;-144.99;85.86;52413.44;5065481;28;20209;-77
2022/11/09 08:16:07;;;;;;;;;;;;;;;-144.99;84.94;52391.03;5056206;28;20276;-77
2022/11/09 08:18:35;;;;;;;;;;;;;;;-144.99;84.79;52378.78;5058482;28;20330;-77
2022/11/09 08:21:03;;;;;;;;;;;;;;;-144.99;85.12;52382.88;5055914;28;19967;-77
2022/11/09 08:23:29;;;;;;;;;;;;;;;-144.99;86.23;52411.41;5063746;28;19943;-76
2022/11/09 08:25:55;;;;;;;;;;;;;;;-144.99;86.04;52368.59;5063572;28;20121;-77
2022/11/09 08:28:22;;;;;;;;;;;;;;;-144.99;85.46;52366.56;5058023;28;20441;-77
2022/11/09 08:30:54;;;;;;;;;;;;;;;-144.99;84.40;52378.78;5058328;28;20030;-77
2022/11/09 08:33:21;;;;;;;;;;;;;;;-144.99;83.46;52403.25;5065718;28;19971;-77
2022/11/09 08:35:49;;;;;;;;;;;;;;;-144.99;82.90;52329.88;5064324;28;19938;-77
2022/11/09 08:38:15;;;;;;;;;;;;;;;-144.99;81.42;52356.38;5061436;28;19944;-77
2022/11/09 08:40:42;;;;;;;;;;;;;;;-144.99;80.35;52321.72;5063524;28;19959;-77
2022/11/09 08:43:08;;;;;;;;;;;;;;;-144.99;78.53;52391.03;5056894;28;20102;-79
2022/11/09 08:45:36;;;;;;;;;;;;;;;-144.99;76.86;52374.72;5071923;28;19939;-77
2022/11/09 08:48:03;;;;;;;;;;;;;;;-144.99;76.18;52342.09;5077182;28;19940;-76
2022/11/09 08:50:29;;;;;;;;;;;;;;;-144.99;75.09;52317.66;5075447;28;20057;-76
2022/11/09 08:52:57;;;;;;;;;;;;;;;-144.99;72.80;52323.75;5055245;28;19965;-77
2022/11/09 08:55:24;;;;;;;;;;;;;;;-144.99;71.33;52317.66;5052785;28;20055;-79
2022/11/09 08:57:53;;;;;;;;;;;;;;;-144.99;69.60;52327.84;5058598;28;19952;-78
2022/11/09 09:00:19;;;;;;;;;;;;;;;-144.99;69.19;52338.03;5055192;28;20083;-78
2022/11/09 09:02:46;;;;;;;;;;;;;;;-144.99;68.77;52309.50;5065865;28;20462;-78
2022/11/09 09:05:12;;;;;;;;;;;;;;;-144.99;68.99;52325.81;5063434;28;20654;-78
2022/11/09 09:07:39;;;;;;;;;;;;;;;-144.99;68.68;52301.34;5052880;28;20455;-78
2022/11/09 09:10:07;;;;;;;;;;;;;;;-144.99;66.84;52360.44;5061007;28;19946;-78
2022/11/09 09:12:33;;;;;;;;;;;;;;;-144.99;66.32;52297.25;5065573;28;19948;-77
2022/11/09 09:15:00;;;;;;;;;;;;;;;-144.99;65.27;52325.81;5063391;28;20304;-77
2022/11/09 09:17:26;;;;;;;;;;;;;;;-144.99;64.52;52301.34;5052765;28;20014;-79
2022/11/09 09:19:53;;;;;;;;;;;;;;;-144.99;64.32;52323.75;5056541;28;20024;-80
2022/11/09 09:22:19;;;;;;;;;;;;;;;-144.99;63.68;52309.50;5064662;28;20014;-79
2022/11/09 09:24:46;;;;;;;;;;;;;;;-144.99;65.00;52317.66;5059127;28;20042;-79
2022/11/09 09:27:14;;;;;;;;;;;;;;;-144.99;63.96;52297.25;5065073;28;20032;-79
2022/11/09 09:29:41;;;;;;;;;;;;;;;-144.99;63.83;52309.50;5066221;28;20143;-79
2022/11/09 09:32:07;;;;;;;;;;;;;;;-144.99;64.23;52317.66;5067631;28;19958;-78
2022/11/09 09:34:33;;;;;;;;;;;;;;;-144.99;64.03;52325.81;5063690;28;20071;-78
2022/11/09 09:37:00;;;;;;;;;;;;;;;-144.99;62.89;52325.81;5069191;28;20048;-79
2022/11/09 09:39:26;;;;;;;;;;;;;;;-144.99;61.72;52291.16;5062378;28;19951;-78
2022/11/09 09:41:54;;;;;;;;;;;;;;;-144.99;59.92;52272.81;5063594;28;20071;-79
2022/11/09 09:44:28;;;;;;;;;;;;;;;-144.99;58.39;52293.19;5058393;28;19945;-79
2022/11/09 09:46:58;;;;;;;;;;;;;;;-144.99;57.93;52293.19;5063978;28;19946;-79
2022/11/09 09:49:26;;;;;;;;;;;;;;;-144.99;56.92;52301.34;5066159;28;20022;-78
2022/11/09 09:51:55;;;;;;;;;;;;;;;-144.99;55.63;52283.00;5066937;28;20053;-78
2022/11/09 09:54:23;;;;;;;;;;;;;;;-144.99;54.91;52260.56;5052050;28;20035;-78
2022/11/09 09:56:50;;;;;;;;;;;;;;;-144.99;53.81;52217.78;5063490;28;19983;-78
2022/11/09 09:59:20;;;;;;;;;;;;;;;-144.99;54.57;52280.97;5061629;28;20177;-80
2022/11/09 10:01:48;;;;;;;;;;;;;;;-144.99;54.34;52244.28;5063510;28;19966;-80
2022/11/09 10:04:16;;;;;;;;;;;;;;;-144.99;53.21;52223.88;5055078;28;19988;-80
2022/11/09 10:06:49;;;;;;;;;;;;;;;-144.99;52.89;52183.13;5065191;28;19982;-80
2022/11/09 10:09:25;;;;;;;;;;;;;;;-144.99;53.80;52221.84;5059559;28;20260;-80
2022/11/09 10:11:56;;;;;;;;;;;;;;;-144.99;53.04;52197.41;5069142;28;20396;-80
2022/11/09 10:14:29;;;;;;;;;;;;;;;-144.99;52.15;52203.50;5058754;28;20038;-81
2022/11/09 10:17:01;;;;;;;;;;;;;;;-144.99;51.63;52209.63;5069537;28;20372;-80
2022/11/09 10:19:39;;;;;;;;;;;;;;;-144.99;51.29;52187.19;5055181;28;20496;-79
2022/11/09 10:22:10;;;;;;;;;;;;;;;-144.99;49.00;52154.59;5064913;28;20206;-80
2022/11/09 10:24:40;;;;;;;;;;;;;;;-144.99;47.64;52215.75;5064921;28;20007;-79
2022/11/09 10:27:17;;;;;;;;;;;;;;;-144.99;47.03;52117.91;5057791;28;19981;-79
2022/11/09 10:29:46;;;;;;;;;;;;;;;-144.99;47.46;52150.53;5061533;28;19946;-79
2022/11/09 10:32:15;;;;;;;;;;;;;;;-144.99;47.37;52111.78;5066420;28;19959;-79
2022/11/09 10:34:44;;;;;;;;;;;;;;;-144.99;48.58;52264.66;5053564;28;20061;-82
2022/11/09 10:37:14;;;;;;;;;;;;;;;-144.99;49.56;52285.03;5059923;28;20574;-80
2022/11/09 10:39:44;;;;;;;;;;;;;;;-144.99;49.80;52191.28;5062852;28;19958;-80
2022/11/09 10:42:11;;;;;;;;;;;;;;;-144.99;49.75;52268.72;5068433;28;19960;-80
2022/11/09 10:44:38;;;;;;;;;;;;;;;-144.99;49.74;52256.50;5068634;28;19959;-80
2022/11/09 10:47:06;;;;;;;;;;;;;;;-144.99;50.38;52199.44;5065560;28;20318;-79
2022/11/09 10:49:34;;;;;;;;;;;;;;;-144.99;49.57;52174.97;5072896;28;20158;-81
2022/11/09 10:52:01;;;;;;;;;;;;;;;-144.99;48.97;52166.81;5062674;28;19998;-80
2022/11/09 10:54:31;;;;;;;;;;;;;;;-144.99;48.61;52185.16;5066214;28;20332;-80
2022/11/09 10:57:12;;;;;;;;;;;;;;;-144.99;48.87;52174.97;5072172;28;19941;-81
2022/11/09 10:59:48;;;;;;;;;;;;;;;-144.99;48.17;52232.03;5075469;23;19967;-69
2022/11/09 11:02:30;;;;;;;;;;;;;;;-144.99;47.71;52179.06;5059162;28;19974;-69
2022/11/09 11:05:19;;;;;;;;;;;;;;;-144.99;47.45;52134.22;5047088;28;19942;-70
2022/11/09 11:07:46;;;;;;;;;;;;;;;-144.99;45.92;52113.84;5057203;28;19947;-69
2022/11/09 11:10:17;;;;;;;;;;;;;;;-144.99;45.64;52154.59;5063516;28;19958;-69
2022/11/09 11:12:45;;;;;;;;;;;;;;;-144.99;45.73;52195.34;5064959;28;20033;-69
2022/11/09 11:15:21;;;;;;;;;;;;;;;-144.99;45.89;52170.91;5061969;28;19991;-69
2022/11/09 11:17:48;;;;;;;;;;;;;;;-144.99;45.97;52207.59;5063038;28;20288;-69
2022/11/09 11:20:29;;;;;;;;;;;;;;;-144.99;46.25;52146.44;5063584;28;20032;-68
2022/11/09 11:23:11;;;;;;;;;;;;;;;-144.99;45.75;52146.44;5055311;28;19962;-68
2022/11/09 11:25:51;;;;;;;;;;;;;;;-144.99;46.66;52166.81;5054471;28;19938;-70
2022/11/09 11:28:21;;;;;;;;;;;;;;;-144.99;45.76;52109.75;5055312;28;20347;-67
2022/11/09 11:30:47;;;;;;;;;;;;;;;-144.99;45.24;52117.91;5061550;28;20087;-69
2022/11/09 11:33:15;;;;;;;;;;;;;;;-144.99;45.57;52211.66;5068796;28;19950;-69
2022/11/09 11:35:45;;;;;;;;;;;;;;;-144.99;44.98;52069.00;5055790;28;20205;-69
2022/11/09 11:38:18;;;;;;;;;;;;;;;-144.99;44.08;52183.13;5059578;28;19928;-68
2022/11/09 11:40:49;;;;;;;;;;;;;;;-144.99;44.99;52152.56;5063871;28;20052;-69
2022/11/09 11:43:22;;;;;;;;;;;;;;;-144.99;44.89;52158.66;5058993;28;20049;-68
2022/11/09 11:45:53;;;;;;;;;;;;;;;-144.99;44.25;52095.50;5067488;28;19966;-68
2022/11/09 11:48:27;;;;;;;;;;;;;;;-144.99;43.44;52101.59;5063520;28;20056;-69
2022/11/09 11:50:59;;;;;;;;;;;;;;;-144.99;44.00;52126.06;5068100;28;20051;-70
2022/11/09 11:53:31;;;;;;;;;;;;;;;-144.99;43.88;52111.78;5059004;28;19941;-69
2022/11/09 11:56:05;;;;;;;;;;;;;;;-144.99;43.93;52166.81;5058084;28;20149;-68
2022/11/09 11:58:43;;;;;;;;;;;;;;;-144.99;45.37;52211.66;5063269;28;20461;-69
2022/11/09 12:01:17;;;;;;;;;;;;;;;-144.99;45.92;52158.66;5061396;28;20031;-71
2022/11/09 12:03:50;;;;;;;;;;;;;;;-144.99;45.32;52073.06;5052943;28;20398;-69
2022/11/09 12:06:28;;;;;;;;;;;;;;;-144.99;44.50;52069.00;5069039;28;19946;-69
2022/11/09 12:09:02;;;;;;;;;;;;;;;-144.99;44.66;52199.44;5068904;28;20032;-70
2022/11/09 12:11:35;;;;;;;;;;;;;;;-144.99;45.22;52230.00;5066560;28;20008;-69
2022/11/09 12:14:09;;;;;;;;;;;;;;;-144.99;45.35;52203.50;5064913;28;19971;-69
2022/11/09 12:16:39;;;;;;;;;;;;;;;-144.99;44.53;52162.75;5065845;28;20039;-68
2022/11/09 12:19:16;;;;;;;;;;;;;;;-144.99;44.71;52130.13;5059092;28;20029;-69
2022/11/09 12:21:51;;;;;;;;;;;;;;;-144.99;44.26;52142.38;5068885;28;20377;-69
2022/11/09 12:24:23;;;;;;;;;;;;;;;-144.99;43.32;52113.84;5065261;28;20361;-69
2022/11/09 12:26:58;;;;;;;;;;;;;;;-144.99;42.76;52121.97;5061509;28;19974;-69
2022/11/09 12:29:29;;;;;;;;;;;;;;;-144.99;42.59;52156.63;5062440;28;20368;-69
2022/11/09 12:32:03;;;;;;;;;;;;;;;-144.99;42.99;52179.06;5068620;28;20015;-69